Time;durP1;ratioP1;P1;durP2;ratioP2;P2;SDS_P1;SDS_P2;PMS_P1;PMS_P2;Temp;Humidity;BMP_temperature;BMP_pressure;BME280_temperature;BME280_humidity;BME280_pressure;Samples;Min_cycle;Max_cycle;Signal;HPM_P1;HPM_P2
2023/01/04 00:00:51;;;;;;;117.47;63.95;;;;;;;2.76;100.00;99324.70;1761225;81;21034;-76
2023/01/04 00:03:19;;;;;;;132.85;65.37;;;;;;;2.75;100.00;99327.07;1761186;81;21574;-78
2023/01/04 00:05:46;;;;;;;120.05;61.18;;;;;;;2.75;100.00;99332.42;1761274;81;21026;-77
2023/01/04 00:08:13;;;;;;;118.95;58.68;;;;;;;2.76;100.00;99326.05;1761023;81;21535;-78
2023/01/04 00:10:40;;;;;;;121.17;60.90;;;;;;;2.77;100.00;99325.53;1761197;81;21087;-78
2023/01/04 00:13:07;;;;;;;108.78;59.38;;;;;;;2.77;100.00;99330.88;1761313;81;21460;-76
2023/01/04 00:15:34;;;;;;;102.25;55.05;;;;;;;2.74;100.00;99333.45;1761335;81;20984;-78
2023/01/04 00:18:01;;;;;;;103.90;55.12;;;;;;;2.73;100.00;99332.28;1761276;81;21855;-78
2023/01/04 00:20:28;;;;;;;105.83;50.98;;;;;;;2.71;100.00;99333.00;1760963;81;21059;-77
2023/01/04 00:22:55;;;;;;;96.87;48.87;;;;;;;2.67;100.00;99332.58;1761269;81;21038;-78
2023/01/04 00:25:21;;;;;;;100.78;52.75;;;;;;;2.59;100.00;99330.06;1761002;81;21003;-77
2023/01/04 00:27:51;;;;;;;104.60;55.20;;;;;;;2.48;100.00;99342.14;1761022;81;21127;-76
2023/01/04 00:30:18;;;;;;;99.65;50.38;;;;;;;2.39;100.00;99341.12;1760257;81;22029;-76
2023/01/04 00:32:45;;;;;;;102.45;48.68;;;;;;;2.33;100.00;99332.05;1761215;81;21043;-78
2023/01/04 00:35:12;;;;;;;89.17;45.92;;;;;;;2.22;100.00;99337.91;1761114;81;21060;-77
2023/01/04 00:37:39;;;;;;;92.72;46.63;;;;;;;2.16;100.00;99342.20;1761188;81;21011;-78
2023/01/04 00:40:06;;;;;;;95.30;45.43;;;;;;;2.10;100.00;99338.95;1761223;81;21082;-77
2023/01/04 00:42:33;;;;;;;90.77;47.73;;;;;;;2.07;100.00;99337.19;1761341;81;21074;-78
2023/01/04 00:45:00;;;;;;;99.92;52.58;;;;;;;2.02;100.00;99334.25;1750177;81;21019;-76
2023/01/04 00:47:27;;;;;;;104.07;54.27;;;;;;;1.93;100.00;99333.05;1731026;82;21580;-77
2023/01/04 00:49:54;;;;;;;98.50;50.25;;;;;;;1.87;100.00;99332.98;1730972;82;21031;-78
2023/01/04 00:52:21;;;;;;;98.55;49.77;;;;;;;1.78;100.00;99327.45;1731230;82;21512;-76
2023/01/04 00:54:48;;;;;;;95.45;47.88;;;;;;;1.70;100.00;99335.08;1730780;82;20992;-76
2023/01/04 00:57:15;;;;;;;88.10;44.08;;;;;;;1.68;100.00;99325.92;1759199;81;20971;-76
2023/01/04 00:59:42;;;;;;;100.45;46.90;;;;;;;1.62;100.00;99332.53;1760958;81;21022;-78
2023/01/04 01:02:08;;;;;;;94.00;49.03;;;;;;;1.55;100.00;99326.32;1761328;81;21038;-78
2023/01/04 01:04:35;;;;;;;96.02;50.40;;;;;;;1.51;100.00;99333.05;1760983;81;21483;-76
2023/01/04 01:07:02;;;;;;;93.17;48.83;;;;;;;1.47;100.00;99329.94;1761201;81;21000;-78
2023/01/04 01:09:29;;;;;;;95.47;47.17;;;;;;;1.45;100.00;99335.95;1760836;81;22021;-78
2023/01/04 01:11:56;;;;;;;99.03;49.75;;;;;;;1.30;100.00;99327.18;1761275;81;21006;-78
2023/01/04 01:14:24;;;;;;;100.50;50.73;;;;;;;1.29;100.00;99326.86;1760891;81;21011;-76
2023/01/04 01:16:51;;;;;;;86.97;44.83;;;;;;;1.28;100.00;99320.70;1761249;81;21031;-76
2023/01/04 01:19:18;;;;;;;92.67;48.60;;;;;;;1.24;100.00;99318.58;1761016;81;21051;-79
2023/01/04 01:21:44;;;;;;;98.10;48.02;;;;;;;1.13;100.00;99321.23;1761029;81;21007;-78
2023/01/04 01:24:15;;;;;;;95.12;48.78;;;;;;;1.08;100.00;99330.30;1760837;81;21011;-76
2023/01/04 01:26:42;;;;;;;87.67;43.10;;;;;;;1.07;100.00;99332.65;1760875;81;22191;-78
2023/01/04 01:29:09;;;;;;;78.40;43.35;;;;;;;1.05;100.00;99330.68;1760741;81;21047;-78
2023/01/04 01:31:36;;;;;;;79.10;42.73;;;;;;;0.99;100.00;99324.74;1761184;81;21031;-78
2023/01/04 01:34:03;;;;;;;80.07;42.50;;;;;;;0.92;100.00;99327.83;1760855;81;21012;-77
2023/01/04 01:36:29;;;;;;;81.80;41.98;;;;;;;0.89;100.00;99321.03;1761152;81;21066;-78
2023/01/04 01:38:56;;;;;;;76.10;41.18;;;;;;;0.85;100.00;99317.06;1761028;81;21031;-78
2023/01/04 01:41:30;;;;;;;77.60;40.88;;;;;;;0.78;100.00;99313.00;1761245;81;21539;-78
2023/01/04 01:44:31;;;;;;;79.22;43.02;;;;;;;0.76;100.00;99320.33;1760720;81;22130;-78
2023/01/04 01:46:58;;;;;;;87.50;41.88;;;;;;;0.76;100.00;99317.67;1731040;82;21614;-78
2023/01/04 01:49:36;;;;;;;65.72;36.60;;;;;;;0.76;100.00;99321.67;1730618;82;21055;-78
2023/01/04 01:52:06;;;;;;;70.65;39.65;;;;;;;0.73;100.00;99314.55;1730647;82;21405;-76
2023/01/04 01:54:43;;;;;;;77.00;37.95;;;;;;;0.72;100.00;99316.91;1730764;82;21072;-78
2023/01/04 01:57:15;;;;;;;83.52;36.80;;;;;;;0.72;100.00;99318.23;1758271;81;21413;-76
2023/01/04 01:59:41;;;;;;;70.15;38.95;;;;;;;0.72;100.00;99318.23;1760815;81;21011;-78
2023/01/04 02:02:09;;;;;;;78.70;43.05;;;;;;;0.70;100.00;99317.09;1761361;81;21070;-78
2023/01/04 02:04:37;;;;;;;79.35;39.45;;;;;;;0.70;100.00;99311.76;1760983;81;21055;-76
2023/01/04 02:07:04;;;;;;;57.45;30.17;;;;;;;0.70;100.00;99321.61;1761462;81;21027;-78
2023/01/04 02:09:31;;;;;;;66.37;34.18;;;;;;;0.66;100.00;99325.64;1760944;81;21511;-78
2023/01/04 02:11:58;;;;;;;61.58;32.17;;;;;;;0.58;100.00;99322.55;1761415;81;21007;-80
2023/01/04 02:14:25;;;;;;;61.00;31.00;;;;;;;0.54;100.00;99324.77;1760923;81;21448;-76
2023/01/04 02:17:26;;;;;;;58.55;31.50;;;;;;;0.47;100.00;99321.17;1761287;81;21279;-78
2023/01/04 02:20:25;;;;;;;72.08;37.05;;;;;;;0.42;100.00;99323.55;1761206;81;21078;-76
2023/01/04 02:23:17;;;;;;;70.47;35.15;;;;;;;0.40;100.00;99328.25;1738938;81;21051;-77
2023/01/04 02:25:49;;;;;;;79.40;37.60;;;;;;;0.36;100.00;99329.64;1744970;81;21060;-76
2023/01/04 02:28:49;;;;;;;83.07;42.50;;;;;;;0.34;100.00;99326.30;1730777;82;21012;-76
2023/01/04 02:31:47;;;;;;;67.15;37.95;;;;;;;0.28;100.00;99324.38;1730789;82;21007;-79
2023/01/04 02:34:51;;;;;;;62.10;35.68;;;;;;;0.22;100.00;99323.77;1730980;82;20999;-76
2023/01/04 02:37:53;;;;;;;58.40;30.85;;;;;;;0.17;100.00;99324.33;1730753;82;21087;-76
2023/01/04 02:40:35;;;;;;;49.60;26.35;;;;;;;0.15;100.00;99321.50;1730728;82;21045;-76
2023/01/04 02:45:59;;;;;;;43.63;24.82;;;;;;;0.17;100.00;99311.47;1730756;82;21468;-78
2023/01/04 02:51:34;;;;;;;52.88;30.20;;;;;;;0.26;100.00;99305.91;1730681;82;21920;-76
2023/01/04 02:54:15;;;;;;;57.60;29.42;;;;;;;0.25;100.00;99305.56;1730774;82;21042;-78
2023/01/04 02:57:00;;;;;;;57.08;32.73;;;;;;;0.18;100.00;99303.32;1752196;81;21085;-78
2023/01/04 03:00:02;;;;;;;59.10;30.68;;;;;;;0.10;100.00;99305.23;1730720;82;21202;-77
2023/01/04 03:08:59;;;;;;;49.20;25.15;;;;;;;-0.07;100.00;99285.40;1730725;82;21021;-76
2023/01/04 03:14:43;;;;;;;47.05;25.82;;;;;;;-0.15;100.00;99276.14;1730757;82;20985;-77
2023/01/04 03:17:12;;;;;;;50.35;26.70;;;;;;;-0.18;100.00;99287.14;1730290;82;20973;-76
2023/01/04 03:19:51;;;;;;;;;;;;;;;-0.21;100.00;99278.19;1733365;82;21178;-76
2023/01/04 03:36:44;;;;;;;52.75;27.48;;;;;;;-0.45;100.00;99279.21;1730540;82;21480;-78
2023/01/04 03:48:49;;;;;;;56.65;25.72;;;;;;;-0.53;100.00;99283.27;1745712;82;21674;-77
2023/01/04 03:51:22;;;;;;;35.10;17.30;;;;;;;-0.51;100.00;99282.61;1768364;81;21529;-78
2023/01/04 03:53:58;;;;;;;43.28;25.75;;;;;;;-0.55;100.00;99283.13;1716319;82;21012;-78
2023/01/04 03:56:26;;;;;;;53.05;26.35;;;;;;;-0.57;100.00;99274.81;1749090;81;21999;-76
2023/01/04 03:58:53;;;;;;;46.13;23.70;;;;;;;-0.57;100.00;99275.32;1738667;82;21014;-76
2023/01/04 04:01:20;;;;;;;44.63;23.67;;;;;;;-0.54;100.00;99272.30;1748861;81;21114;-77
2023/01/04 04:09:18;;;;;;;48.87;26.05;;;;;;;-0.65;100.00;99270.88;1730708;82;21012;-76
2023/01/04 04:11:46;;;;;;;50.17;27.87;;;;;;;-0.63;100.00;99272.03;1730778;82;21494;-76
2023/01/04 04:14:13;;;;;;;46.83;23.65;;;;;;;-0.64;100.00;99275.70;1730808;82;21015;-78
2023/01/04 04:16:39;;;;;;;50.25;25.08;;;;;;;-0.65;100.00;99275.38;1730558;82;21591;-78
2023/01/04 04:19:06;;;;;;;49.63;25.80;;;;;;;-0.72;100.00;99271.26;1730722;82;21062;-76
2023/01/04 04:21:33;;;;;;;47.17;28.05;;;;;;;-0.76;100.00;99270.48;1730584;82;21011;-78
2023/01/04 04:24:00;;;;;;;42.95;24.43;;;;;;;-0.77;100.00;99265.66;1730824;82;21082;-78
2023/01/04 04:26:27;;;;;;;47.83;26.15;;;;;;;-0.84;100.00;99254.55;1730619;82;21294;-78
2023/01/04 04:28:54;;;;;;;75.95;26.82;;;;;;;-0.87;100.00;99252.55;1730784;82;20991;-76
2023/01/04 04:31:21;;;;;;;52.90;27.58;;;;;;;-0.88;100.00;99253.56;1730741;82;21515;-76
2023/01/04 04:33:48;;;;;;;48.13;24.87;;;;;;;-0.92;100.00;99253.59;1730790;82;20999;-78
2023/01/04 04:36:15;;;;;;;56.63;22.35;;;;;;;-0.94;100.00;99248.97;1730836;82;21494;-76
2023/01/04 04:38:42;;;;;;;47.88;24.57;;;;;;;-0.92;100.00;99256.77;1730865;82;21012;-76
2023/01/04 04:43:56;;;;;;;46.85;22.35;;;;;;;-0.98;100.00;99247.64;1730865;82;21023;-76
2023/01/04 04:46:23;;;;;;;42.30;23.15;;;;;;;-1.02;100.00;99245.02;1730700;82;21050;-76
2023/01/04 04:48:50;;;;;;;43.30;22.70;;;;;;;-1.00;100.00;99240.34;1748893;82;21010;-76
2023/01/04 04:51:17;;;;;;;43.08;21.82;;;;;;;-1.01;100.00;99244.02;1748990;82;21922;-76
2023/01/04 04:53:44;;;;;;;46.77;22.27;;;;;;;-1.02;100.00;99241.53;1749074;81;21050;-78
2023/01/04 04:56:11;;;;;;;41.60;22.30;;;;;;;-1.05;100.00;99255.17;1726737;82;21528;-77
2023/01/04 04:58:38;;;;;;;50.43;25.43;;;;;;;-1.06;100.00;99246.86;1730908;82;20983;-76
2023/01/04 05:01:04;;;;;;;55.05;28.80;;;;;;;-1.11;100.00;99255.39;1702875;84;21014;-78
2023/01/04 05:03:32;;;;;;;60.65;29.77;;;;;;;-1.09;100.00;99259.20;1702860;84;21020;-76
2023/01/04 05:05:58;;;;;;;68.80;34.75;;;;;;;-1.14;100.00;99257.87;1702705;84;21383;-76
2023/01/04 05:08:25;;;;;;;82.75;35.48;;;;;;;-1.20;100.00;99246.63;1702779;84;21575;-78
2023/01/04 05:10:52;;;;;;;74.37;34.27;;;;;;;-1.22;100.00;99243.78;1702645;84;20991;-76
2023/01/04 05:13:19;;;;;;;76.55;34.98;;;;;;;-1.21;100.00;99234.30;1702670;84;21023;-78
2023/01/04 05:15:48;;;;;;;65.20;32.13;;;;;;;-1.21;100.00;99222.83;1702786;84;21484;-76
2023/01/04 05:18:18;;;;;;;64.47;32.45;;;;;;;-1.25;100.00;99225.02;1697907;83;20977;-77
2023/01/04 05:20:45;;;;;;;91.40;35.20;;;;;;;-1.33;100.00;99218.41;1726946;83;21008;-78
2023/01/04 05:23:14;;;;;;;85.87;37.85;;;;;;;-1.30;100.00;99209.25;1715921;82;21466;-77
2023/01/04 05:25:41;;;;;;;76.30;33.13;;;;;;;-1.33;100.00;99205.12;1745545;82;21062;-77
2023/01/04 05:28:08;;;;;;;102.85;47.33;;;;;;;-1.39;100.00;99207.64;1745547;82;21158;-76
2023/01/04 05:30:50;;;;;;;88.62;43.42;;;;;;;-1.42;100.00;99196.36;1745493;82;21458;-78
2023/01/04 05:33:26;;;;;;;74.53;37.88;;;;;;;-1.40;100.00;99197.51;1745419;82;21006;-76
2023/01/04 05:35:54;;;;;;;87.30;43.85;;;;;;;-1.41;100.00;99199.84;1745578;82;21053;-78
2023/01/04 05:38:21;;;;;;;98.27;45.33;;;;;;;-1.44;100.00;99204.19;1745634;82;21278;-77
2023/01/04 05:40:48;;;;;;;81.53;38.83;;;;;;;-1.44;100.00;99203.69;1745429;82;21877;-79
2023/01/04 05:43:15;;;;;;;86.08;39.35;;;;;;;-1.45;100.00;99203.37;1745423;82;20971;-78
2023/01/04 05:45:43;;;;;;;65.52;35.17;;;;;;;-1.50;100.00;99195.58;1768586;80;21357;-78
2023/01/04 05:48:10;;;;;;;73.78;37.10;;;;;;;-1.54;100.00;99203.55;1750148;82;21016;-76
2023/01/04 05:50:37;;;;;;;110.70;48.83;;;;;;;-1.58;100.00;99198.27;1770815;81;21004;-78
2023/01/04 05:53:05;;;;;;;111.88;50.05;;;;;;;-1.59;100.00;99206.75;1750317;82;21054;-78
2023/01/04 05:55:32;;;;;;;102.42;48.13;;;;;;;-1.62;100.00;99198.27;1768536;81;21386;-77
2023/01/04 05:57:59;;;;;;;99.90;48.75;;;;;;;-1.68;100.00;99194.49;1759567;81;21477;-80
2023/01/04 06:00:26;;;;;;;112.85;55.10;;;;;;;-1.77;100.00;99199.02;1730000;81;21083;-78
2023/01/04 06:02:54;;;;;;;123.25;52.93;;;;;;;-1.79;100.00;99190.89;1741953;80;21465;-80
2023/01/04 06:05:21;;;;;;;110.20;51.98;;;;;;;-1.79;100.00;99190.39;1746918;80;21091;-76
2023/01/04 06:07:48;;;;;;;93.40;43.38;;;;;;;-1.76;100.00;99194.02;1748195;81;21082;-76
2023/01/04 06:10:15;;;;;;;65.95;34.83;;;;;;;-1.71;100.00;99194.82;1749688;81;21073;-76
2023/01/04 06:12:42;;;;;;;67.58;31.82;;;;;;;-1.71;100.00;99193.48;1751355;81;21016;-76
2023/01/04 06:15:10;;;;;;;55.50;29.42;;;;;;;-1.69;100.00;99186.70;1757752;81;20996;-78
2023/01/04 06:17:37;;;;;;;74.53;33.55;;;;;;;-1.64;100.00;99188.32;1744970;81;21686;-76
2023/01/04 06:20:06;;;;;;;81.78;33.45;;;;;;;-1.60;100.00;99190.98;1748841;81;21019;-78
2023/01/04 06:22:33;;;;;;;70.25;35.85;;;;;;;-1.56;100.00;99191.77;1787703;80;21013;-78
2023/01/04 06:25:00;;;;;;;84.10;38.00;;;;;;;-1.54;100.00;99191.12;1744256;81;21448;-78
2023/01/04 06:27:27;;;;;;;66.07;32.42;;;;;;;-1.59;100.00;99189.47;1749813;80;21010;-78
2023/01/04 06:29:54;;;;;;;64.62;34.35;;;;;;;-1.60;100.00;99182.50;1740645;81;21843;-76
2023/01/04 06:32:20;;;;;;;69.32;30.72;;;;;;;-1.62;100.00;99180.99;1730595;82;20991;-76
2023/01/04 06:34:47;;;;;;;67.20;31.37;;;;;;;-1.64;100.00;99172.38;1746897;81;20996;-78
2023/01/04 06:37:14;;;;;;;66.20;26.48;;;;;;;-1.74;100.00;99175.24;1738665;81;21019;-76
2023/01/04 06:39:43;;;;;;;64.97;26.70;;;;;;;-1.78;100.00;99167.30;1738895;81;37873;-78
2023/01/04 06:42:43;;;;;;;72.50;29.07;;;;;;;-1.80;100.00;99162.64;1734668;81;21587;-78
2023/01/04 06:44:38;;;;;;;65.37;27.27;;;;;;;-1.81;100.00;99163.64;1740286;80;21007;-78
2023/01/04 06:47:05;;;;;;;72.90;32.85;;;;;;;-1.82;100.00;99162.81;1764035;80;20967;-77
2023/01/04 06:49:32;;;;;;;80.83;37.08;;;;;;;-1.86;100.00;99164.17;1764049;80;21039;-76
2023/01/04 06:51:59;;;;;;;72.27;33.83;;;;;;;-1.86;100.00;99166.00;1756567;80;21031;-78
2023/01/04 06:54:26;;;;;;;80.35;36.00;;;;;;;-1.85;100.00;99158.36;1755695;80;21293;-76
2023/01/04 06:56:53;;;;;;;77.40;36.05;;;;;;;-1.91;100.00;99155.88;1755874;80;20983;-78
2023/01/04 06:59:20;;;;;;;73.07;34.40;;;;;;;-1.93;100.00;99155.73;1738775;80;21003;-76
2023/01/04 07:01:47;;;;;;;79.27;39.23;;;;;;;-1.93;100.00;99154.41;1775530;80;21510;-76
2023/01/04 07:04:14;;;;;;;91.50;45.35;;;;;;;-1.94;100.00;99150.09;1732092;81;21026;-76
2023/01/04 07:06:40;;;;;;;91.37;44.05;;;;;;;-1.99;100.00;99146.11;1738201;81;21863;-78
2023/01/04 07:09:07;;;;;;;96.70;47.13;;;;;;;-2.00;100.00;99152.42;1746156;80;21058;-76
2023/01/04 07:11:34;;;;;;;103.45;45.38;;;;;;;-2.00;100.00;99153.75;1746375;80;21027;-78
2023/01/04 07:14:01;;;;;;;91.95;41.15;;;;;;;-2.00;100.00;99160.40;1758049;80;21079;-77
2023/01/04 07:16:28;;;;;;;113.95;43.70;;;;;;;-2.00;100.00;99164.38;1756060;80;21399;-76
2023/01/04 07:18:55;;;;;;;106.92;43.52;;;;;;;-1.95;100.00;99160.40;1744864;81;22155;-76
2023/01/04 07:21:24;;;;;;;81.92;37.83;;;;;;;-1.90;100.00;99162.02;1749920;80;20995;-76
2023/01/04 07:23:51;;;;;;;89.30;43.13;;;;;;;-1.90;100.00;99162.84;1763830;80;21003;-78
2023/01/04 07:26:18;;;;;;;84.97;42.00;;;;;;;-1.92;100.00;99162.70;1743838;80;21035;-76
2023/01/04 07:31:30;;;;;;;85.15;43.95;;;;;;;-1.99;100.00;99155.41;1740981;80;21141;-76
2023/01/04 07:33:57;;;;;;;92.57;41.33;;;;;;;-2.00;100.00;99163.55;1741590;80;21003;-76
2023/01/04 07:36:23;;;;;;;83.15;40.00;;;;;;;-2.00;100.00;99171.52;1751037;80;21008;-77
2023/01/04 07:38:50;;;;;;;75.00;35.68;;;;;;;-2.03;100.00;99165.23;1747205;81;21006;-76
2023/01/04 07:41:17;;;;;;;74.58;34.20;;;;;;;-1.97;100.00;99167.69;1766309;80;22126;-78
2023/01/04 07:43:45;;;;;;;74.30;33.48;;;;;;;-1.94;100.00;99161.55;1783193;79;21052;-78
2023/01/04 07:46:12;;;;;;;72.47;35.38;;;;;;;-1.91;100.00;99159.86;1752943;80;21409;-76
2023/01/04 07:48:39;;;;;;;72.22;35.40;;;;;;;-1.91;100.00;99162.52;1745333;81;21001;-77
2023/01/04 07:51:05;;;;;;;68.57;34.65;;;;;;;-1.91;100.00;99162.52;1751228;79;21642;-78
2023/01/04 07:53:32;;;;;;;67.97;32.48;;;;;;;-1.85;100.00;99163.17;1772551;80;21012;-78
2023/01/04 07:55:59;;;;;;;72.25;32.15;;;;;;;-1.82;100.00;99161.98;1748054;80;21574;-76
2023/01/04 07:58:31;;;;;;;59.55;29.27;;;;;;;-1.80;100.00;99158.66;1773622;80;21015;-76
2023/01/04 08:01:09;;;;;;;84.77;41.37;;;;;;;-1.78;100.00;99156.17;1760830;79;21046;-76
2023/01/04 08:03:35;;;;;;;66.75;35.35;;;;;;;-1.71;100.00;99151.83;1744174;80;21002;-76
2023/01/04 08:06:07;;;;;;;90.85;41.18;;;;;;;-1.69;100.00;99141.02;1739474;81;21027;-78
2023/01/04 08:08:34;;;;;;;69.07;34.85;;;;;;;-1.59;100.00;99130.16;1757404;80;21007;-77
2023/01/04 08:11:02;;;;;;;88.42;47.80;;;;;;;-1.36;100.00;99127.54;1747162;80;21101;-78
2023/01/04 08:13:29;;;;;;;103.58;40.43;;;;;;;-1.22;100.00;99118.27;1748988;81;21016;-77
2023/01/04 08:15:56;;;;;;;66.20;39.20;;;;;;;-1.17;100.00;99108.44;1753900;80;21005;-76
2023/01/04 08:18:23;;;;;;;95.32;36.65;;;;;;;-1.23;100.00;99109.14;1742326;80;21087;-76
2023/01/04 08:20:50;;;;;;;72.55;41.25;;;;;;;-1.23;100.00;99103.32;1750132;80;21071;-76
2023/01/04 08:23:17;;;;;;;81.32;41.88;;;;;;;-1.22;100.00;99105.48;1722453;81;21007;-78
2023/01/04 08:25:44;;;;;;;92.80;39.40;;;;;;;-1.20;100.00;99101.66;1745535;81;21510;-78
2023/01/04 08:28:11;;;;;;;68.02;36.63;;;;;;;-1.15;100.00;99095.28;1757354;80;20961;-76
2023/01/04 08:30:38;;;;;;;66.10;31.80;;;;;;;-1.15;100.00;99103.77;1758889;80;21543;-76
2023/01/04 08:33:13;;;;;;;99.47;36.33;;;;;;;-1.09;100.00;99115.03;1742918;81;20995;-77
2023/01/04 08:35:40;;;;;;;77.45;33.08;;;;;;;-1.07;100.00;99105.53;1749684;80;21044;-77
2023/01/04 08:38:07;;;;;;;75.05;40.40;;;;;;;-1.01;100.00;99103.50;1745360;81;21054;-78
2023/01/04 08:40:34;;;;;;;76.60;44.88;;;;;;;-0.98;100.00;99109.28;1747015;80;21044;-78
2023/01/04 08:43:01;;;;;;;74.05;39.63;;;;;;;-0.94;100.00;99099.95;1746080;80;21053;-77
2023/01/04 08:45:28;;;;;;;78.78;34.48;;;;;;;-0.89;100.00;99095.40;1750657;80;21073;-78
2023/01/04 08:47:55;;;;;;;73.20;35.83;;;;;;;-0.81;100.00;99096.66;1752171;80;21444;-76
2023/01/04 08:50:22;;;;;;;78.62;43.20;;;;;;;-0.76;100.00;99098.28;1750145;80;21379;-76
2023/01/04 08:52:49;;;;;;;66.97;33.18;;;;;;;-0.67;100.00;99099.03;1731000;80;22130;-78
2023/01/04 08:55:16;;;;;;;63.70;37.25;;;;;;;-0.59;100.00;99107.77;1772077;80;21035;-78
2023/01/04 08:57:43;;;;;;;79.55;38.67;;;;;;;-0.50;100.00;99103.19;1735064;80;21090;-76
2023/01/04 09:00:11;;;;;;;69.58;38.40;;;;;;;-0.41;100.00;99099.93;1738616;80;21482;-77
2023/01/04 09:02:37;;;;;;;86.72;44.88;;;;;;;-0.31;100.00;99093.82;1716014;81;21527;-76
2023/01/04 09:05:06;;;;;;;58.50;32.38;;;;;;;-0.21;100.00;99092.20;1735236;81;20996;-78
2023/01/04 09:07:33;;;;;;;66.57;33.13;;;;;;;-0.14;100.00;99083.80;1747871;81;21438;-78
2023/01/04 09:09:59;;;;;;;69.35;31.15;;;;;;;-0.07;100.00;99084.21;1749591;80;21005;-78
2023/01/04 09:12:26;;;;;;;71.77;34.38;;;;;;;0.03;100.00;99093.75;1746325;80;21504;-78
2023/01/04 09:14:53;;;;;;;94.28;38.60;;;;;;;0.10;100.00;99078.17;1746017;80;20980;-78
2023/01/04 09:17:21;;;;;;;71.62;37.35;;;;;;;0.19;100.00;99069.55;1759811;80;21015;-78
2023/01/04 09:19:48;;;;;;;97.08;51.98;;;;;;;0.30;100.00;99068.23;1747605;81;21438;-78
2023/01/04 09:22:15;;;;;;;108.65;60.23;;;;;;;0.31;100.00;99058.70;1739201;81;21456;-78
2023/01/04 09:24:42;;;;;;;98.97;52.67;;;;;;;0.34;100.00;99050.32;1731929;81;21508;-77
2023/01/04 09:27:09;;;;;;;95.92;51.00;;;;;;;0.42;100.00;99053.38;1760548;80;21009;-76
2023/01/04 09:29:36;;;;;;;84.95;45.60;;;;;;;0.52;100.00;99045.92;1747273;81;21066;-76
2023/01/04 09:32:03;;;;;;;74.75;38.75;;;;;;;0.60;100.00;99041.79;1748628;80;21125;-76
2023/01/04 09:34:30;;;;;;;87.27;43.30;;;;;;;0.68;100.00;99034.96;1748282;81;21449;-78
2023/01/04 09:36:57;;;;;;;71.82;34.18;;;;;;;0.77;100.00;99035.17;1769906;79;20980;-78
2023/01/04 09:39:25;;;;;;;213.92;99.32;;;;;;;0.88;100.00;99033.00;1744775;80;21433;-76
2023/01/04 09:41:59;;;;;;;85.57;46.03;;;;;;;0.95;100.00;99028.03;1765876;79;21009;-76
2023/01/04 09:44:40;;;;;;;88.52;47.83;;;;;;;1.05;100.00;99021.84;1757666;80;20975;-77
2023/01/04 09:47:10;;;;;;;87.75;49.25;;;;;;;1.12;100.00;99015.22;1760125;79;21002;-78
2023/01/04 09:49:48;;;;;;;85.53;47.27;;;;;;;1.23;100.00;99016.52;1743791;80;21030;-79
2023/01/04 09:52:46;;;;;;;81.87;46.70;;;;;;;1.32;100.00;99003.33;1752814;80;21066;-76
2023/01/04 09:55:23;;;;;;;92.70;45.92;;;;;;;1.42;100.00;98999.78;1744343;80;21442;-77
2023/01/04 09:58:02;;;;;;;69.53;37.80;;;;;;;1.55;100.00;98991.86;1753610;80;21133;-76
2023/01/04 10:00:36;;;;;;;75.17;40.20;;;;;;;1.69;100.00;98981.52;1734840;81;21786;-76
2023/01/04 10:03:14;;;;;;;79.37;43.05;;;;;;;1.82;100.00;98970.08;1749329;80;21460;-79
2023/01/04 10:05:41;;;;;;;76.45;38.88;;;;;;;1.89;100.00;98964.25;1758787;80;21035;-77
2023/01/04 10:08:19;;;;;;;67.78;37.60;;;;;;;2.01;100.00;98959.64;1745151;80;21024;-78
2023/01/04 10:11:06;;;;;;;64.63;33.70;;;;;;;2.14;100.00;98953.83;1749628;80;21012;-77
2023/01/04 10:13:58;;;;;;;81.35;41.25;;;;;;;2.26;100.00;98944.16;1762746;80;21055;-78
2023/01/04 10:16:58;;;;;;;63.48;32.55;;;;;;;2.41;100.00;98935.14;1723212;80;21023;-78
2023/01/04 10:19:37;;;;;;;83.22;42.40;;;;;;;2.53;100.00;98927.61;1751565;80;21036;-79
2023/01/04 10:22:40;;;;;;;70.90;38.13;;;;;;;2.65;100.00;98930.52;1747900;81;21617;-77
2023/01/04 10:25:24;;;;;;;82.88;40.20;;;;;;;2.75;100.00;98908.16;1747989;80;21014;-78
2023/01/04 10:28:11;;;;;;;54.48;28.87;;;;;;;2.93;100.00;98894.65;1744257;80;21149;-77
2023/01/04 10:31:08;;;;;;;67.30;31.45;;;;;;;3.07;100.00;98893.05;1755234;80;21510;-77
2023/01/04 10:33:43;;;;;;;81.80;38.08;;;;;;;3.27;100.00;98877.45;1734900;81;21063;-77
2023/01/04 10:36:15;;;;;;;62.58;31.73;;;;;;;3.43;100.00;98868.94;1755277;80;21074;-76
2023/01/04 10:38:42;;;;;;;55.05;26.10;;;;;;;3.55;100.00;98857.02;1750734;80;20995;-76
2023/01/04 10:41:12;;;;;;;48.52;29.60;;;;;;;3.72;100.00;98852.80;1741800;80;21786;-78
2023/01/04 10:43:56;;;;;;;68.17;39.78;;;;;;;3.89;100.00;98849.91;1749710;80;21070;-76
2023/01/04 10:46:43;;;;;;;53.50;31.77;;;;;;;4.01;100.00;98848.69;1742559;80;21059;-79
2023/01/04 10:49:18;;;;;;;54.83;31.97;;;;;;;4.12;100.00;98849.87;1750031;80;21063;-79
2023/01/04 10:51:50;;;;;;;55.20;31.00;;;;;;;4.24;100.00;98844.09;1742830;80;21050;-78
2023/01/04 10:54:46;;;;;;;50.50;30.45;;;;;;;4.34;100.00;98841.73;1753817;80;21501;-79
2023/01/04 10:57:41;;;;;;;54.27;24.18;;;;;;;4.44;100.00;98844.77;1753257;80;21576;-79
2023/01/04 11:00:25;;;;;;;29.30;17.10;;;;;;;4.56;100.00;98830.61;1764563;80;21016;-79
2023/01/04 11:03:10;;;;;;;40.55;19.67;;;;;;;4.67;100.00;98826.66;1739624;80;21086;-77
2023/01/04 11:05:40;;;;;;;39.42;14.78;;;;;;;4.78;100.00;98811.15;1744653;80;21472;-77
2023/01/04 11:08:12;;;;;;;398.10;162.70;;;;;;;4.99;100.00;98814.45;1737484;80;21045;-76
2023/01/04 11:10:43;;;;;;;68.17;30.55;;;;;;;5.15;100.00;98804.98;1742324;80;22025;-76
2023/01/04 11:13:10;;;;;;;62.03;32.90;;;;;;;5.28;100.00;98792.17;1752931;80;20991;-76
2023/01/04 11:15:37;;;;;;;43.17;20.90;;;;;;;5.45;100.00;98792.89;1753154;80;22032;-79
2023/01/04 11:18:05;;;;;;;42.80;15.63;;;;;;;5.54;100.00;98787.48;1744685;80;21048;-76
2023/01/04 11:20:32;;;;;;;42.15;22.60;;;;;;;5.62;100.00;98782.61;1746647;80;21048;-77
2023/01/04 11:23:14;;;;;;;68.37;30.90;;;;;;;5.71;100.00;98784.45;1752726;80;21056;-79
2023/01/04 11:25:51;;;;;;;29.60;16.20;;;;;;;5.80;100.00;98779.56;1748443;80;21094;-79
2023/01/04 11:28:24;;;;;;;23.42;13.78;;;;;;;5.95;100.00;98773.26;1750867;80;21015;-77
2023/01/04 11:31:08;;;;;;;21.93;13.45;;;;;;;6.13;100.00;98765.61;1757355;80;21031;-77
2023/01/04 11:33:57;;;;;;;19.23;9.53;;;;;;;6.29;100.00;98754.16;1740523;80;21776;-77
2023/01/04 11:36:45;;;;;;;23.00;8.83;;;;;;;6.44;100.00;98750.47;1744168;80;21045;-77
2023/01/04 11:39:23;;;;;;;35.60;9.13;;;;;;;6.61;100.00;98731.73;1748021;81;21014;-77
2023/01/04 11:42:03;;;;;;;10.90;5.33;;;;;;;6.87;100.00;98714.75;1743688;80;21056;-79
2023/01/04 11:44:31;;;;;;;41.48;9.70;;;;;;;7.07;97.07;98709.22;1716635;81;21060;-77
2023/01/04 11:47:19;;;;;;;14.58;4.15;;;;;;;7.36;91.34;98714.63;1744011;80;21760;-79
2023/01/04 11:49:47;;;;;;;7.12;2.75;;;;;;;7.55;90.44;98706.61;1750123;80;21020;-77
2023/01/04 11:52:33;;;;;;;4.37;2.75;;;;;;;7.75;88.51;98709.36;1748895;80;21472;-79
2023/01/04 11:55:25;;;;;;;16.80;3.02;;;;;;;7.87;80.46;98709.58;1743481;80;21497;-76
2023/01/04 11:58:11;;;;;;;4.28;2.87;;;;;;;7.98;85.79;98702.45;1745541;80;21527;-79
2023/01/04 12:00:38;;;;;;;4.78;1.92;;;;;;;8.07;79.44;98702.86;1749465;80;21015;-77
2023/01/04 12:03:17;;;;;;;5.75;2.77;;;;;;;8.12;82.39;98706.47;1731569;80;21480;-79
2023/01/04 12:05:44;;;;;;;5.37;2.45;;;;;;;8.15;85.55;98704.61;1760139;80;21060;-77
2023/01/04 12:08:32;;;;;;;20.57;9.45;;;;;;;8.15;86.21;98697.86;1748086;80;21461;-79
2023/01/04 12:11:00;;;;;;;7.33;3.07;;;;;;;8.17;84.50;98692.20;1754707;80;21109;-77
2023/01/04 12:13:27;;;;;;;2.90;1.50;;;;;;;8.19;80.89;98694.94;1743855;80;21459;-77
2023/01/04 12:16:06;;;;;;;7.92;2.05;;;;;;;8.22;76.18;98679.33;1735552;80;20971;-77
2023/01/04 12:18:40;;;;;;;4.90;4.05;;;;;;;8.23;78.66;98684.48;1751068;80;25914;-79
2023/01/04 12:21:18;;;;;;;17.32;7.58;;;;;;;8.21;76.58;98690.66;1749483;80;21361;-77
2023/01/04 12:23:45;;;;;;;8.00;1.60;;;;;;;8.12;76.84;98653.83;1750070;81;22090;-77